createdAt,value
2023-02-27T00:00:01.236Z,100438.44
2023-02-27T00:02:29.049Z,100458.13
2023-02-27T00:04:58.277Z,100455.78
2023-02-27T00:07:26.306Z,100457.13
2023-02-27T00:09:54.230Z,100457.22
2023-02-27T00:12:22.148Z,100456.19
2023-02-27T00:14:51.560Z,100464.44
2023-02-27T00:17:19.985Z,100481.78
2023-02-27T00:19:47.942Z,100496.47
2023-02-27T00:22:15.904Z,100498.72
2023-02-27T00:24:43.867Z,100509.31
2023-02-27T00:27:11.739Z,100516.81
2023-02-27T00:29:39.969Z,100520.19
2023-02-27T00:32:08.052Z,100522.31
2023-02-27T00:34:36.169Z,100518.34
2023-02-27T00:37:04.261Z,100517.91
2023-02-27T00:39:32.328Z,100527.03
2023-02-27T00:42:00.207Z,100523.88
2023-02-27T00:44:28.116Z,100521.97
2023-02-27T00:46:56.044Z,100520.75
2023-02-27T00:49:25.584Z,100529.28
2023-02-27T00:51:54.115Z,100520.22
2023-02-27T00:54:22.115Z,100519.56
2023-02-27T00:56:50.212Z,100531.41
2023-02-27T00:59:18.244Z,100540.25
2023-02-27T01:01:46.513Z,100540.50
2023-02-27T01:04:14.669Z,100542.91
2023-02-27T01:06:42.607Z,100539.06
2023-02-27T01:09:10.538Z,100545.00
2023-02-27T01:11:38.637Z,100550.81
2023-02-27T01:14:06.769Z,100554.03
2023-02-27T01:16:34.775Z,100553.72
2023-02-27T01:19:03.080Z,100556.06
2023-02-27T01:21:30.941Z,100556.56
2023-02-27T01:23:58.894Z,100565.47
2023-02-27T01:26:26.780Z,100558.28
2023-02-27T01:28:54.902Z,100564.25
2023-02-27T01:31:22.891Z,100566.13
2023-02-27T01:33:51.006Z,100564.44
2023-02-27T01:36:19.012Z,100568.38
2023-02-27T01:38:47.098Z,100561.00
2023-02-27T01:41:15.036Z,100550.78
2023-02-27T01:44:02.324Z,100555.91
2023-02-27T01:46:32.441Z,100553.47
2023-02-27T01:49:03.806Z,100554.69
2023-02-27T01:51:42.442Z,100570.88
2023-02-27T01:54:12.701Z,100563.25
2023-02-27T01:56:42.899Z,100564.22
2023-02-27T01:59:12.336Z,100568.13
2023-02-27T02:01:40.331Z,100561.56
2023-02-27T02:04:27.787Z,100568.84
2023-02-27T02:07:04.926Z,100562.91
2023-02-27T02:09:37.822Z,100566.88
2023-02-27T02:12:06.433Z,100565.50
2023-02-27T02:14:34.423Z,100567.84
2023-02-27T02:17:24.440Z,100574.56
2023-02-27T02:20:23.220Z,100573.81
2023-02-27T02:23:09.931Z,100573.28
2023-02-27T02:26:15.156Z,100574.00
2023-02-27T02:29:16.765Z,100593.00
2023-02-27T02:31:54.046Z,100579.03
2023-02-27T02:34:33.239Z,100581.50
2023-02-27T02:37:19.361Z,100585.34
2023-02-27T02:40:17.673Z,100584.50
2023-02-27T02:42:56.299Z,100587.63
2023-02-27T02:45:50.132Z,100596.03
2023-02-27T02:48:20.971Z,100604.59
2023-02-27T02:51:13.451Z,100608.97
2023-02-27T02:53:53.609Z,100617.16
2023-02-27T02:56:54.804Z,100626.22
2023-02-27T02:59:25.812Z,100622.16
2023-02-27T03:02:02.860Z,100621.50
2023-02-27T03:04:42.288Z,100618.84
2023-02-27T03:07:22.540Z,100611.59
2023-02-27T03:10:15.000Z,100616.91
2023-02-27T03:12:53.213Z,100612.06
2023-02-27T03:15:29.408Z,100624.03
2023-02-27T03:18:07.457Z,100639.78
2023-02-27T03:20:44.022Z,100634.13
2023-02-27T03:23:18.508Z,100644.69
2023-02-27T03:25:47.519Z,100645.75
2023-02-27T03:28:22.360Z,100642.59
2023-02-27T03:31:01.856Z,100649.03
2023-02-27T03:33:43.319Z,100650.25
2023-02-27T03:36:27.792Z,100644.59
2023-02-27T03:39:06.632Z,100655.72
2023-02-27T03:41:44.427Z,100653.25
2023-02-27T03:44:56.587Z,100656.09
2023-02-27T03:47:25.459Z,100659.38
2023-02-27T03:49:53.433Z,100667.50
2023-02-27T03:52:22.808Z,100667.78
2023-02-27T03:55:16.278Z,100666.19
2023-02-27T03:57:46.973Z,100669.38
2023-02-27T04:00:19.291Z,100675.03
2023-02-27T04:02:51.557Z,100664.22
2023-02-27T04:05:23.575Z,100663.16
2023-02-27T04:08:15.215Z,100669.56
2023-02-27T04:11:17.175Z,100669.28
2023-02-27T04:14:01.653Z,100667.69
2023-02-27T04:16:50.633Z,100678.91
2023-02-27T04:19:59.568Z,100672.59
2023-02-27T04:22:37.570Z,100675.81
2023-02-27T04:25:32.157Z,100682.69
2023-02-27T04:28:38.525Z,100682.19
2023-02-27T04:31:32.386Z,100679.50
2023-02-27T04:34:03.595Z,100686.72
2023-02-27T04:36:36.811Z,100686.47
2023-02-27T04:39:04.450Z,100680.88
2023-02-27T04:41:42.112Z,100679.34
2023-02-27T04:44:12.201Z,100688.31
2023-02-27T04:46:43.880Z,100680.91
2023-02-27T04:49:26.756Z,100691.81
2023-02-27T04:52:06.805Z,100687.59
2023-02-27T04:54:50.615Z,100688.31
2023-02-27T04:57:28.190Z,100691.63
2023-02-27T04:59:58.503Z,100688.50
2023-02-27T05:02:40.852Z,100692.28
2023-02-27T05:05:17.203Z,100693.34
2023-02-27T05:07:52.848Z,100688.63
2023-02-27T05:10:32.854Z,100688.44
2023-02-27T05:13:09.797Z,100686.84
2023-02-27T05:15:53.329Z,100685.31
2023-02-27T05:18:22.434Z,100691.44
2023-02-27T05:21:35.039Z,100687.19
2023-02-27T05:24:24.350Z,100690.97
2023-02-27T05:27:05.164Z,100690.19
2023-02-27T05:29:51.836Z,100689.91
2023-02-27T05:32:38.170Z,100690.28
2023-02-27T05:35:42.927Z,100688.41
2023-02-27T05:38:26.152Z,100696.88
2023-02-27T05:41:33.740Z,100704.53
2023-02-27T05:44:16.721Z,100704.09
2023-02-27T05:46:59.217Z,100704.75
2023-02-27T05:49:30.909Z,100714.34
2023-02-27T05:52:03.358Z,100705.13
2023-02-27T05:54:50.596Z,100714.59
2023-02-27T05:57:42.421Z,100708.75
2023-02-27T06:00:20.492Z,100709.13
2023-02-27T06:02:48.779Z,100718.31
2023-02-27T06:05:19.391Z,100724.59
2023-02-27T06:07:47.381Z,100723.84
2023-02-27T06:10:17.296Z,100728.47
2023-02-27T06:12:45.492Z,100730.94
2023-02-27T06:15:13.644Z,100738.69
2023-02-27T06:17:41.648Z,100743.84
2023-02-27T06:20:10.275Z,100737.94
2023-02-27T06:22:38.193Z,100751.41
2023-02-27T06:25:06.706Z,100758.59
2023-02-27T06:27:34.756Z,100759.72
2023-02-27T06:30:02.776Z,100760.47
2023-02-27T06:32:31.360Z,100754.03
2023-02-27T06:34:59.361Z,100769.44
2023-02-27T06:37:27.400Z,100766.75
2023-02-27T06:39:55.299Z,100774.53
2023-02-27T06:42:23.272Z,100784.63
2023-02-27T06:44:51.327Z,100789.72
2023-02-27T06:47:19.295Z,100792.66
2023-02-27T06:49:47.344Z,100792.75
2023-02-27T06:52:15.314Z,100798.59
2023-02-27T06:54:43.379Z,100804.44
2023-02-27T06:57:11.567Z,100806.63
2023-02-27T06:59:39.463Z,100802.19
2023-02-27T07:02:07.794Z,100816.88
2023-02-27T07:04:35.717Z,100813.84
2023-02-27T07:07:33.908Z,100821.22
2023-02-27T07:09:51.778Z,100833.66
2023-02-27T07:12:19.691Z,100821.81
2023-02-27T07:14:47.692Z,100831.81
2023-02-27T07:17:15.603Z,100837.84
2023-02-27T07:19:43.582Z,100840.28
2023-02-27T07:22:11.856Z,100835.69
2023-02-27T07:24:39.815Z,100846.88
2023-02-27T07:27:07.896Z,100847.81
2023-02-27T07:29:36.275Z,100851.22
2023-02-27T07:32:04.467Z,100844.41
2023-02-27T07:34:32.852Z,100866.09
2023-02-27T07:37:00.843Z,100876.97
2023-02-27T07:39:28.874Z,100866.53
2023-02-27T07:41:56.808Z,100871.22
2023-02-27T07:44:24.804Z,100878.00
2023-02-27T07:46:52.897Z,100882.19
2023-02-27T07:49:20.976Z,100874.09
2023-02-27T07:51:49.157Z,100880.47
2023-02-27T07:54:17.296Z,100878.81
2023-02-27T07:56:45.328Z,100872.56
2023-02-27T07:59:13.392Z,100881.63
2023-02-27T08:01:41.368Z,100890.97
2023-02-27T08:04:09.625Z,100892.56
2023-02-27T08:06:37.591Z,100899.19
2023-02-27T08:09:06.338Z,100905.03
2023-02-27T08:11:34.488Z,100898.44
2023-02-27T08:14:03.053Z,100900.91
2023-02-27T08:16:32.466Z,100897.88
2023-02-27T08:19:01.129Z,100895.31
2023-02-27T08:21:29.559Z,100891.91
2023-02-27T08:23:57.816Z,100896.41
2023-02-27T08:26:26.096Z,100900.88
2023-02-27T08:28:54.368Z,100895.78
2023-02-27T08:31:22.463Z,100893.38
2023-02-27T08:33:58.034Z,100896.41
2023-02-27T08:36:36.130Z,100896.88
2023-02-27T08:39:04.575Z,100894.91
2023-02-27T08:41:32.877Z,100896.50
2023-02-27T08:44:01.388Z,100898.59
2023-02-27T08:46:29.798Z,100903.47
2023-02-27T08:48:58.030Z,100905.00
2023-02-27T08:51:26.402Z,100903.47
2023-02-27T08:53:59.231Z,100901.03
2023-02-27T08:56:28.319Z,100919.28
2023-02-27T08:58:56.612Z,100904.91
2023-02-27T09:01:28.856Z,100908.16
2023-02-27T09:03:57.818Z,100909.50
2023-02-27T09:06:26.416Z,100904.06
2023-02-27T09:08:54.636Z,100914.91
2023-02-27T09:11:23.089Z,100915.13
2023-02-27T09:13:52.057Z,100910.00
2023-02-27T09:16:21.565Z,100923.47
2023-02-27T09:18:50.438Z,100920.59
2023-02-27T09:21:18.645Z,100920.53
2023-02-27T09:23:46.940Z,100921.25
2023-02-27T09:26:16.366Z,100927.72
2023-02-27T09:28:44.738Z,100921.72
2023-02-27T09:31:13.608Z,100913.34
2023-02-27T09:33:41.635Z,100930.81
2023-02-27T09:36:09.757Z,100920.97
2023-02-27T09:38:40.990Z,100928.69
2023-02-27T09:41:40.873Z,100935.94
2023-02-27T09:44:46.774Z,100938.38
2023-02-27T09:47:25.207Z,100938.03
2023-02-27T09:50:07.755Z,100943.75
2023-02-27T09:52:37.801Z,100940.97
2023-02-27T09:55:17.686Z,100946.94
2023-02-27T09:58:17.775Z,100947.06
2023-02-27T10:01:10.258Z,100950.66
2023-02-27T10:03:57.615Z,100938.97
2023-02-27T10:06:39.036Z,100942.31
2023-02-27T10:09:18.102Z,100958.41
2023-02-27T10:11:55.313Z,100951.63
2023-02-27T10:14:52.406Z,100945.91
2023-02-27T10:17:32.089Z,100949.69
2023-02-27T10:20:04.828Z,100952.97
2023-02-27T10:22:41.397Z,100955.28
2023-02-27T10:25:30.307Z,100953.47
2023-02-27T10:28:11.429Z,100952.06
2023-02-27T10:30:39.976Z,100958.34
2023-02-27T10:33:16.896Z,100949.78
2023-02-27T10:35:46.319Z,100959.34
2023-02-27T10:38:27.321Z,100949.41
2023-02-27T10:40:58.219Z,100946.00
2023-02-27T10:43:26.519Z,100943.47
2023-02-27T10:45:54.865Z,100935.50
2023-02-27T10:48:25.578Z,100947.81
2023-02-27T10:50:53.615Z,100942.03
2023-02-27T10:53:27.493Z,100946.78
2023-02-27T10:56:02.980Z,100941.69
2023-02-27T10:58:34.662Z,100946.50
2023-02-27T11:01:06.277Z,100937.38
2023-02-27T11:03:40.627Z,100940.09
2023-02-27T11:06:27.242Z,100937.34
2023-02-27T11:09:22.544Z,100930.91
2023-02-27T11:11:52.202Z,100929.19
2023-02-27T11:14:25.537Z,100937.00
2023-02-27T11:16:56.348Z,100920.72
2023-02-27T11:19:37.237Z,100926.91
2023-02-27T11:22:20.256Z,100926.78
2023-02-27T11:24:48.516Z,100907.41
2023-02-27T11:27:30.934Z,100903.47
2023-02-27T11:30:07.665Z,100903.91
2023-02-27T11:32:51.606Z,100909.28
2023-02-27T11:35:28.654Z,100912.53
2023-02-27T11:38:00.678Z,100913.28
2023-02-27T11:40:50.628Z,100910.94
2023-02-27T11:43:31.518Z,100900.28
2023-02-27T11:46:46.781Z,100899.75
2023-02-27T11:49:30.758Z,100898.03
2023-02-27T11:52:07.073Z,100902.63
2023-02-27T11:54:58.240Z,100894.59
2023-02-27T11:57:34.460Z,100898.41
2023-02-27T12:00:28.752Z,100895.06
2023-02-27T12:03:21.346Z,100907.31
2023-02-27T12:06:16.518Z,100902.47
2023-02-27T12:08:59.820Z,100899.16
2023-02-27T12:11:34.629Z,100896.22
2023-02-27T12:14:17.597Z,100894.09
2023-02-27T12:17:08.999Z,100893.19
2023-02-27T12:19:44.579Z,100888.69
2023-02-27T12:22:24.249Z,100897.84
2023-02-27T12:24:59.618Z,100895.56
2023-02-27T12:27:54.798Z,100898.63
2023-02-27T12:30:27.776Z,100887.16
2023-02-27T12:33:25.700Z,100895.25
2023-02-27T12:36:00.295Z,100889.97
2023-02-27T12:38:29.013Z,100890.28
2023-02-27T12:41:14.724Z,100886.13
2023-02-27T12:44:01.101Z,100884.22
2023-02-27T12:46:52.782Z,100889.50
2023-02-27T12:49:37.193Z,100887.00
2023-02-27T12:52:05.072Z,100884.78
2023-02-27T12:54:48.195Z,100881.09
2023-02-27T12:57:32.498Z,100877.34
2023-02-27T13:00:10.217Z,100887.03
2023-02-27T13:02:47.340Z,100875.00
2023-02-27T13:05:34.594Z,100882.81
2023-02-27T13:08:28.801Z,100873.97
2023-02-27T13:11:18.835Z,100867.34
2023-02-27T13:13:55.437Z,100881.22
2023-02-27T13:16:31.921Z,100883.91
2023-02-27T13:19:11.904Z,100881.31
2023-02-27T13:21:40.279Z,100877.53
2023-02-27T13:24:29.649Z,100879.13
2023-02-27T13:26:57.772Z,100890.13
2023-02-27T13:29:39.833Z,100890.69
2023-02-27T13:32:13.899Z,100884.34
2023-02-27T13:35:00.139Z,100882.75
2023-02-27T13:37:52.322Z,100881.78
2023-02-27T13:40:32.103Z,100883.13
2023-02-27T13:43:06.929Z,100876.56
2023-02-27T13:45:51.913Z,100886.72
2023-02-27T13:48:43.367Z,100897.13
2023-02-27T13:51:43.558Z,100901.47
2023-02-27T13:54:15.405Z,100905.75
2023-02-27T13:57:05.788Z,100919.13
2023-02-27T13:59:42.104Z,100907.03
2023-02-27T14:02:09.980Z,100907.31
2023-02-27T14:04:53.050Z,100913.47
2023-02-27T14:07:53.544Z,100932.59
2023-02-27T14:10:25.261Z,100918.63
2023-02-27T14:12:59.232Z,100923.06
2023-02-27T14:15:34.904Z,100928.66
2023-02-27T14:18:16.028Z,100929.53
2023-02-27T14:20:51.412Z,100936.31
2023-02-27T14:23:25.825Z,100943.00
2023-02-27T14:26:00.773Z,100936.28
2023-02-27T14:28:31.344Z,100941.69
2023-02-27T14:31:06.403Z,100952.16
2023-02-27T14:33:48.480Z,100965.13
2023-02-27T14:36:22.434Z,100956.81
2023-02-27T14:38:55.935Z,100954.53
2023-02-27T14:41:50.524Z,100955.97
2023-02-27T14:44:28.252Z,100963.50
2023-02-27T14:46:59.373Z,100961.91
2023-02-27T14:49:33.167Z,100955.59
2023-02-27T14:52:24.595Z,100953.19
2023-02-27T14:55:06.025Z,100952.81
2023-02-27T14:57:34.092Z,100954.06
2023-02-27T15:00:02.207Z,100961.66
2023-02-27T15:02:35.219Z,100959.25
2023-02-27T15:05:03.450Z,100968.06
2023-02-27T15:07:34.725Z,100963.22
2023-02-27T15:10:06.375Z,100966.34
2023-02-27T15:12:38.580Z,100968.31
2023-02-27T15:15:09.187Z,100967.25
2023-02-27T15:17:42.346Z,100963.69
2023-02-27T15:20:36.213Z,100972.38
2023-02-27T15:23:24.393Z,100982.31
2023-02-27T15:25:58.861Z,100969.50
2023-02-27T15:28:38.775Z,100975.31
2023-02-27T15:31:12.906Z,100977.63
2023-02-27T15:33:43.138Z,100982.00
2023-02-27T15:36:31.875Z,100985.00
2023-02-27T15:39:03.698Z,100992.53
2023-02-27T15:41:32.162Z,100997.13
2023-02-27T15:44:01.842Z,100993.25
2023-02-27T15:46:30.359Z,100996.63
2023-02-27T15:48:58.822Z,101001.22
2023-02-27T15:51:28.176Z,101005.13
2023-02-27T15:54:00.510Z,101006.56
2023-02-27T15:56:39.061Z,101017.00
2023-02-27T15:59:07.750Z,101014.91
2023-02-27T16:01:36.004Z,101022.28
2023-02-27T16:04:07.237Z,101022.03
2023-02-27T16:06:39.596Z,101026.38
2023-02-27T16:09:23.386Z,101033.59
2023-02-27T16:12:23.121Z,101031.22
2023-02-27T16:14:53.794Z,101031.78
2023-02-27T16:17:33.463Z,101037.28
2023-02-27T16:20:23.155Z,101045.34
2023-02-27T16:23:06.302Z,101045.09
2023-02-27T16:25:34.260Z,101035.44
2023-02-27T16:28:02.258Z,101043.34
2023-02-27T16:30:30.296Z,101042.09
2023-02-27T16:33:01.155Z,101053.63
2023-02-27T16:35:29.664Z,101050.06
2023-02-27T16:38:02.617Z,101061.84
2023-02-27T16:40:30.668Z,101060.47
2023-02-27T16:42:59.321Z,101061.56
2023-02-27T16:45:29.488Z,101071.88
2023-02-27T16:47:59.398Z,101070.94
2023-02-27T16:50:31.747Z,101071.38
2023-02-27T16:52:59.914Z,101074.19
2023-02-27T16:55:29.076Z,101078.75
2023-02-27T16:57:57.017Z,101083.69
2023-02-27T17:00:25.226Z,101085.06
2023-02-27T17:02:53.207Z,101092.72
2023-02-27T17:05:21.201Z,101098.25
2023-02-27T17:07:49.119Z,101104.84
2023-02-27T17:10:20.086Z,101098.66
2023-02-27T17:12:49.466Z,101103.53
2023-02-27T17:15:18.010Z,101105.53
2023-02-27T17:17:46.021Z,101111.34
2023-02-27T17:20:14.818Z,101111.59
2023-02-27T17:22:45.154Z,101119.53
2023-02-27T17:25:14.392Z,101123.41
2023-02-27T17:27:43.769Z,101125.34
2023-02-27T17:30:12.850Z,101123.25
2023-02-27T17:32:40.736Z,101129.94
2023-02-27T17:35:09.561Z,101126.59
2023-02-27T17:37:37.882Z,101130.03
2023-02-27T17:40:08.423Z,101131.03
2023-02-27T17:42:37.396Z,101139.53
2023-02-27T17:45:07.389Z,101142.13
2023-02-27T17:47:35.922Z,101141.88
2023-02-27T17:50:05.388Z,101143.06
2023-02-27T17:52:36.982Z,101152.66
2023-02-27T17:55:06.110Z,101147.66
2023-02-27T17:57:38.178Z,101161.75
2023-02-27T18:00:09.181Z,101161.41
2023-02-27T18:02:37.369Z,101163.00
2023-02-27T18:05:06.750Z,101169.31
2023-02-27T18:07:34.948Z,101172.56
2023-02-27T18:10:05.822Z,101178.28
2023-02-27T18:12:34.525Z,101169.78
2023-02-27T18:15:03.578Z,101182.97
2023-02-27T18:17:31.779Z,101174.88
2023-02-27T18:19:59.807Z,101178.19
2023-02-27T18:22:30.071Z,101177.94
2023-02-27T18:24:58.937Z,101183.53
2023-02-27T18:27:28.232Z,101183.03
2023-02-27T18:29:57.834Z,101204.06
2023-02-27T18:32:25.886Z,101194.63
2023-02-27T18:34:54.295Z,101198.22
2023-02-27T18:37:22.243Z,101204.47
2023-02-27T18:39:50.182Z,101191.50
2023-02-27T18:42:18.110Z,101195.28
2023-02-27T18:44:47.840Z,101195.81
2023-02-27T18:47:15.769Z,101190.09
2023-02-27T18:49:43.775Z,101198.41
2023-02-27T18:52:11.656Z,101197.56
2023-02-27T18:54:41.166Z,101203.25
2023-02-27T18:57:09.567Z,101211.47
2023-02-27T18:59:37.808Z,101210.34
2023-02-27T19:02:05.854Z,101210.81
2023-02-27T19:04:34.212Z,101210.72
2023-02-27T19:07:02.580Z,101217.34
2023-02-27T19:09:32.949Z,101207.34
2023-02-27T19:12:01.369Z,101216.22
2023-02-27T19:14:29.591Z,101217.16
2023-02-27T19:17:00.598Z,101216.22
2023-02-27T19:19:28.699Z,101220.84
2023-02-27T19:21:56.814Z,101218.09
2023-02-27T19:24:24.842Z,101222.72
2023-02-27T19:26:53.608Z,101230.66
2023-02-27T19:29:21.842Z,101232.75
2023-02-27T19:31:50.193Z,101229.47
2023-02-27T19:34:18.317Z,101229.16
2023-02-27T19:36:46.389Z,101222.53
2023-02-27T19:39:14.599Z,101229.25
2023-02-27T19:41:42.666Z,101239.47
2023-02-27T19:44:10.890Z,101244.28
2023-02-27T19:46:41.177Z,101246.06
2023-02-27T19:49:09.397Z,101251.53
2023-02-27T19:51:37.591Z,101251.09
2023-02-27T19:54:05.689Z,101253.31
2023-02-27T19:56:33.729Z,101257.13
2023-02-27T19:59:02.054Z,101253.63
2023-02-27T20:01:32.745Z,101260.66
2023-02-27T20:04:01.603Z,101262.72
2023-02-27T20:06:33.351Z,101255.16
2023-02-27T20:09:01.600Z,101269.69
2023-02-27T20:11:31.167Z,101267.41
2023-02-27T20:14:00.054Z,101275.53
2023-02-27T20:16:30.888Z,101268.31
2023-02-27T20:18:59.545Z,101276.19
2023-02-27T20:21:28.937Z,101275.50
2023-02-27T20:23:58.368Z,101280.06
2023-02-27T20:26:33.237Z,101284.00
2023-02-27T20:29:05.309Z,101287.72
2023-02-27T20:31:36.180Z,101300.44
2023-02-27T20:34:11.234Z,101298.06
2023-02-27T20:36:40.335Z,101286.56
2023-02-27T20:39:10.520Z,101290.81
2023-02-27T20:41:40.496Z,101296.34
2023-02-27T20:44:11.990Z,101293.88
2023-02-27T20:46:42.666Z,101298.84
2023-02-27T20:49:15.106Z,101304.06
2023-02-27T20:51:44.467Z,101291.59
2023-02-27T20:54:16.805Z,101300.66
2023-02-27T20:56:45.479Z,101302.16
2023-02-27T20:59:17.059Z,101307.81
2023-02-27T21:01:53.448Z,101303.19
2023-02-27T21:04:25.233Z,101304.75
2023-02-27T21:06:55.216Z,101310.97
2023-02-27T21:09:23.598Z,101308.84
2023-02-27T21:11:51.898Z,101312.69
2023-02-27T21:14:21.333Z,101317.22
2023-02-27T21:16:49.568Z,101309.34
2023-02-27T21:19:17.955Z,101312.00
2023-02-27T21:21:46.128Z,101317.38
2023-02-27T21:24:15.206Z,101329.81
2023-02-27T21:26:43.660Z,101323.69
2023-02-27T21:29:15.392Z,101324.63
2023-02-27T21:31:45.718Z,101326.22
2023-02-27T21:34:16.757Z,101324.63
2023-02-27T21:36:46.605Z,101321.63
2023-02-27T21:39:21.722Z,101316.69
2023-02-27T21:41:51.088Z,101316.78
2023-02-27T21:44:21.473Z,101326.22
2023-02-27T21:46:50.094Z,101321.38
2023-02-27T21:49:23.858Z,101310.47
2023-02-27T21:51:52.573Z,101326.06
2023-02-27T21:54:21.648Z,101322.13
2023-02-27T21:56:50.171Z,101327.16
2023-02-27T21:59:19.680Z,101323.06
2023-02-27T22:01:48.862Z,101320.09
2023-02-27T22:04:19.449Z,101317.09
2023-02-27T22:06:49.471Z,101334.56
2023-02-27T22:09:18.108Z,101331.66
2023-02-27T22:11:46.370Z,101332.50
2023-02-27T22:14:14.709Z,101337.88
2023-02-27T22:16:43.472Z,101339.47
2023-02-27T22:19:18.998Z,101338.88
2023-02-27T22:21:47.428Z,101340.00
2023-02-27T22:24:15.883Z,101337.59
2023-02-27T22:26:45.104Z,101347.63
2023-02-27T22:29:13.606Z,101344.22
2023-02-27T22:31:41.988Z,101348.50
2023-02-27T22:34:19.499Z,101335.97
2023-02-27T22:36:52.739Z,101343.41
2023-02-27T22:39:21.752Z,101351.19
2023-02-27T22:41:50.228Z,101347.41
2023-02-27T22:44:18.614Z,101352.31
2023-02-27T22:46:48.974Z,101352.25
2023-02-27T22:49:20.634Z,101359.75
2023-02-27T22:51:52.467Z,101353.28
2023-02-27T22:54:23.137Z,101363.16
2023-02-27T22:56:53.530Z,101356.47
2023-02-27T22:59:22.447Z,101371.69
2023-02-27T23:01:50.930Z,101365.63
2023-02-27T23:04:19.568Z,101358.47
2023-02-27T23:06:48.039Z,101373.66
2023-02-27T23:09:20.222Z,101366.81
2023-02-27T23:11:48.587Z,101367.00
2023-02-27T23:14:17.853Z,101370.09
2023-02-27T23:16:46.967Z,101365.25
2023-02-27T23:19:18.143Z,101369.16
2023-02-27T23:21:46.454Z,101356.03
2023-02-27T23:24:17.240Z,101371.28
2023-02-27T23:26:51.192Z,101369.94
2023-02-27T23:29:20.100Z,101368.09
2023-02-27T23:31:48.519Z,101369.78
2023-02-27T23:34:16.950Z,101374.84
2023-02-27T23:36:45.252Z,101361.16
2023-02-27T23:39:13.421Z,101368.72
2023-02-27T23:41:41.801Z,101365.03
2023-02-27T23:44:10.051Z,101360.94
2023-02-27T23:46:38.360Z,101371.34
2023-02-27T23:49:07.499Z,101366.94
2023-02-27T23:51:36.074Z,101367.94
2023-02-27T23:54:04.689Z,101371.50
2023-02-27T23:56:32.874Z,101380.69
2023-02-27T23:59:04.871Z,101383.97
